createdAt,value
2023-03-18T00:04:28.318Z,51.90
2023-03-18T00:07:53.076Z,52.90
2023-03-18T00:11:18.840Z,52.60
2023-03-18T00:14:42.283Z,52.40
2023-03-18T00:21:30.503Z,51.80
2023-03-18T00:24:55.331Z,52.80
2023-03-18T00:28:19.036Z,53.00
2023-03-18T00:31:43.642Z,53.00
2023-03-18T00:35:07.841Z,53.00
2023-03-18T00:38:31.226Z,53.00
2023-03-18T00:41:58.192Z,53.00
2023-03-18T00:45:21.880Z,53.10
2023-03-18T00:48:45.897Z,52.90
2023-03-18T00:52:09.945Z,53.10
2023-03-18T00:55:33.427Z,53.00
2023-03-18T00:58:59.342Z,53.10
2023-03-18T01:02:23.612Z,53.10
2023-03-18T01:05:47.646Z,53.10
2023-03-18T01:09:11.975Z,53.10
2023-03-18T01:12:38.298Z,53.20
2023-03-18T01:22:56.978Z,51.90
2023-03-18T01:29:46.419Z,51.80
2023-03-18T01:33:16.335Z,52.70
2023-03-18T01:36:39.886Z,52.30
2023-03-18T02:00:40.601Z,52.60
2023-03-18T02:07:34.076Z,52.80
2023-03-18T02:10:57.766Z,53.70
2023-03-18T02:14:25.174Z,54.00
2023-03-18T02:18:05.184Z,54.20
2023-03-18T02:21:41.904Z,54.20
2023-03-18T02:25:21.122Z,54.20
2023-03-18T02:32:21.537Z,53.00
2023-03-18T02:39:14.806Z,53.00
2023-03-18T02:46:21.996Z,52.90
2023-03-18T02:49:45.627Z,53.00
2023-03-18T02:53:12.835Z,52.90
2023-03-18T02:56:36.993Z,53.00
2023-03-18T03:00:00.337Z,53.00
2023-03-18T03:03:26.541Z,52.70
2023-03-18T03:10:27.415Z,53.00
2023-03-18T03:34:19.658Z,53.10
2023-03-18T03:41:10.182Z,52.80
2023-03-18T03:44:33.896Z,53.50
2023-03-18T03:47:57.234Z,53.80
2023-03-18T03:51:20.829Z,53.80
2023-03-18T03:54:45.501Z,53.80
2023-03-18T03:58:09.477Z,53.80
2023-03-18T04:01:34.644Z,53.70
2023-03-18T04:04:58.001Z,53.20
2023-03-18T04:08:24.797Z,52.90
2023-03-18T04:11:49.572Z,52.90
2023-03-18T04:18:40.190Z,52.60
2023-03-18T04:25:28.162Z,53.00
2023-03-18T05:10:07.902Z,52.60
2023-03-18T05:13:31.374Z,53.30
2023-03-18T05:16:54.714Z,53.50
2023-03-18T05:20:19.849Z,53.70
2023-03-18T05:23:44.398Z,53.90
2023-03-18T05:27:08.541Z,54.00
2023-03-18T05:30:39.370Z,54.10
2023-03-18T05:34:06.837Z,54.10
2023-03-18T05:37:33.745Z,54.20
2023-03-18T05:41:02.800Z,54.50
2023-03-18T05:44:32.580Z,54.40
2023-03-18T05:51:22.452Z,53.70
2023-03-18T05:54:47.364Z,54.10
2023-03-18T05:58:15.657Z,53.80
2023-03-18T06:05:06.324Z,53.90
2023-03-18T06:18:45.080Z,54.00
2023-03-18T06:22:11.582Z,54.40
2023-03-18T06:35:52.540Z,54.50
2023-03-18T06:46:14.745Z,55.20
2023-03-18T06:49:40.775Z,55.90
2023-03-18T06:53:10.529Z,55.90
2023-03-18T06:56:37.507Z,56.00
2023-03-18T07:13:53.152Z,55.40
2023-03-18T08:01:45.988Z,72.00
2023-03-18T08:15:23.070Z,71.10
2023-03-18T08:18:46.794Z,69.40
2023-03-18T08:25:35.146Z,65.20
2023-03-18T08:29:00.154Z,63.10
2023-03-18T08:35:49.476Z,59.70
2023-03-18T08:46:02.061Z,58.10
2023-03-18T08:49:26.265Z,57.40
2023-03-18T08:59:38.386Z,54.80
2023-03-18T09:03:03.610Z,53.00
2023-03-18T09:13:16.615Z,51.90
2023-03-18T09:20:05.872Z,50.20
2023-03-18T09:23:30.473Z,49.40
2023-03-18T09:37:07.529Z,47.10
2023-03-18T09:40:34.184Z,47.00
2023-03-18T09:44:14.939Z,46.70
2023-03-18T09:48:22.769Z,44.00
2023-03-18T09:52:02.246Z,44.20
2023-03-18T09:55:36.348Z,44.50
2023-03-18T09:59:04.473Z,44.60
2023-03-18T10:02:35.707Z,44.40
2023-03-18T10:06:06.631Z,44.50
2023-03-18T10:20:14.936Z,41.00
2023-03-18T10:27:22.969Z,38.50
2023-03-18T10:34:40.527Z,39.20
2023-03-18T10:38:17.048Z,38.80
2023-03-18T10:41:43.680Z,38.90
2023-03-18T10:45:20.542Z,39.50
2023-03-18T10:48:51.148Z,39.30
2023-03-18T10:52:32.186Z,38.50
2023-03-18T10:56:06.067Z,39.40
2023-03-18T10:59:31.034Z,38.30
2023-03-18T11:41:30.086Z,36.70
2023-03-18T11:44:57.042Z,37.10
2023-03-18T11:48:31.211Z,36.70
2023-03-18T11:52:06.627Z,36.80
2023-03-18T11:55:43.764Z,36.80
2023-03-18T11:59:36.573Z,35.10
2023-03-18T12:03:50.521Z,33.80
2023-03-18T12:07:58.012Z,32.70
2023-03-18T12:11:41.408Z,30.50
2023-03-18T12:15:23.670Z,32.70
2023-03-18T12:19:05.796Z,32.00
2023-03-18T12:23:03.431Z,32.20
2023-03-18T12:30:23.138Z,31.50
2023-03-18T12:33:57.154Z,30.00
2023-03-18T12:37:39.915Z,30.40
2023-03-18T12:45:00.951Z,30.10
2023-03-18T12:48:43.503Z,31.40
2023-03-18T12:52:14.472Z,31.60
2023-03-18T12:55:41.659Z,31.30
2023-03-18T12:59:16.412Z,31.50
2023-03-18T13:02:49.077Z,30.90
2023-03-18T13:06:22.183Z,29.90
2023-03-18T13:09:51.026Z,30.90
2023-03-18T13:13:17.824Z,31.60
2023-03-18T13:16:42.640Z,31.70
2023-03-18T13:20:16.101Z,31.70
2023-03-18T13:24:07.108Z,31.60
2023-03-18T13:27:52.986Z,31.30
2023-03-18T13:31:33.029Z,31.20
2023-03-18T13:35:51.353Z,31.50
2023-03-18T13:39:31.629Z,31.40
2023-03-18T13:43:01.630Z,31.90
2023-03-18T13:46:28.939Z,31.50
2023-03-18T13:50:03.747Z,31.30
2023-03-18T13:53:32.998Z,31.40
2023-03-18T13:57:19.255Z,32.50
2023-03-18T14:00:44.353Z,30.90
2023-03-18T14:04:32.616Z,30.80
2023-03-18T14:07:56.915Z,30.60
2023-03-18T14:11:47.996Z,29.40
2023-03-18T14:15:46.219Z,30.80
2023-03-18T14:22:43.841Z,30.80
2023-03-18T14:26:20.285Z,32.30
2023-03-18T14:29:47.236Z,32.00
2023-03-18T14:33:35.587Z,32.20
2023-03-18T14:37:27.778Z,31.80
2023-03-18T14:40:54.664Z,32.50
2023-03-18T14:44:26.730Z,32.40
2023-03-18T14:47:56.738Z,32.10
2023-03-18T14:51:26.625Z,32.60
2023-03-18T14:54:53.865Z,32.60
2023-03-18T14:58:19.397Z,33.00
2023-03-18T15:01:48.056Z,33.00
2023-03-18T15:05:18.540Z,32.30
2023-03-18T15:08:52.286Z,32.30
2023-03-18T15:12:25.839Z,32.00
2023-03-18T15:15:54.688Z,32.10
2023-03-18T15:19:20.269Z,32.20
2023-03-18T15:22:44.993Z,32.20
2023-03-18T15:26:22.167Z,32.50
2023-03-18T15:29:53.192Z,31.50
2023-03-18T15:33:23.224Z,32.00
2023-03-18T15:36:53.937Z,32.30
2023-03-18T15:40:31.215Z,32.80
2023-03-18T15:43:56.217Z,33.40
2023-03-18T15:47:27.343Z,33.80
2023-03-18T15:50:57.275Z,34.30
2023-03-18T15:54:29.479Z,34.70
2023-03-18T15:57:55.334Z,35.00
2023-03-18T16:01:20.710Z,35.30
2023-03-18T16:04:45.964Z,35.30
2023-03-18T16:08:14.001Z,35.60
2023-03-18T16:11:38.016Z,36.00
2023-03-18T16:15:05.336Z,36.20
2023-03-18T16:18:30.332Z,36.40
2023-03-18T16:21:54.497Z,36.60
2023-03-18T16:25:18.745Z,36.70
2023-03-18T16:28:43.955Z,36.90
2023-03-18T16:32:14.244Z,37.10
2023-03-18T16:35:39.934Z,37.20
2023-03-18T16:39:15.358Z,37.30
2023-03-18T16:42:38.973Z,37.40
2023-03-18T16:46:05.617Z,37.50
2023-03-18T16:49:35.020Z,37.60
2023-03-18T16:53:00.483Z,37.80
2023-03-18T16:56:25.771Z,37.70
2023-03-18T16:59:55.692Z,37.80
2023-03-18T17:03:20.393Z,37.90
2023-03-18T17:06:43.995Z,37.90
2023-03-18T17:10:10.846Z,38.00
2023-03-18T17:13:38.543Z,38.10
2023-03-18T17:17:07.682Z,38.10
2023-03-18T17:20:33.255Z,39.70
2023-03-18T17:23:56.787Z,38.30
2023-03-18T17:27:26.677Z,38.40
2023-03-18T17:30:52.058Z,38.40
2023-03-18T17:34:15.843Z,38.40
2023-03-18T17:37:39.421Z,38.50
2023-03-18T17:41:07.285Z,38.60
2023-03-18T17:44:32.657Z,38.90
2023-03-18T17:48:14.215Z,38.90
2023-03-18T17:51:38.487Z,39.00
2023-03-18T17:55:02.400Z,39.00
2023-03-18T17:58:29.939Z,39.20
2023-03-18T18:01:55.575Z,39.30
2023-03-18T18:05:21.722Z,39.40
2023-03-18T18:08:45.633Z,39.60
2023-03-18T18:12:18.113Z,39.60
2023-03-18T18:15:41.717Z,39.80
2023-03-18T18:19:07.478Z,39.70
2023-03-18T18:22:31.018Z,39.80
2023-03-18T18:25:54.650Z,39.80
2023-03-18T18:29:22.809Z,39.80
2023-03-18T18:32:47.273Z,40.00
2023-03-18T18:36:13.732Z,40.10
2023-03-18T18:39:37.387Z,40.10
2023-03-18T18:43:01.215Z,40.30
2023-03-18T18:46:26.593Z,40.30
2023-03-18T18:49:50.868Z,40.50
2023-03-18T18:53:24.930Z,40.50
2023-03-18T18:56:49.480Z,40.90
2023-03-18T19:00:19.572Z,40.70
2023-03-18T19:03:43.584Z,41.00
2023-03-18T19:07:07.453Z,41.00
2023-03-18T19:10:32.448Z,40.70
2023-03-18T19:14:17.420Z,41.00
2023-03-18T19:17:42.748Z,41.10
2023-03-18T19:21:07.036Z,41.10
2023-03-18T19:24:32.543Z,41.20
2023-03-18T19:27:58.073Z,41.30
2023-03-18T19:31:24.446Z,41.40
2023-03-18T19:34:50.061Z,41.50
2023-03-18T19:38:22.536Z,41.50
2023-03-18T19:41:48.154Z,41.80
2023-03-18T19:45:15.324Z,41.80
2023-03-18T19:48:38.814Z,41.90
2023-03-18T19:52:02.795Z,41.80
2023-03-18T19:55:27.525Z,42.10
2023-03-18T19:58:52.649Z,42.00
2023-03-18T20:02:24.305Z,42.10
2023-03-18T20:05:49.072Z,42.40
2023-03-18T20:09:12.699Z,42.40
2023-03-18T20:12:40.230Z,42.30
2023-03-18T20:16:03.781Z,42.50
2023-03-18T20:19:28.638Z,42.50
2023-03-18T20:22:56.671Z,42.70
2023-03-18T20:26:20.600Z,42.90
2023-03-18T20:29:46.272Z,42.80
2023-03-18T20:33:10.451Z,42.90
2023-03-18T20:36:35.497Z,42.90
2023-03-18T20:39:59.170Z,43.00
2023-03-18T20:43:27.945Z,43.00
2023-03-18T20:46:51.475Z,43.20
2023-03-18T20:50:17.001Z,43.20
2023-03-18T20:53:43.186Z,43.30
2023-03-18T20:57:06.924Z,43.30
2023-03-18T21:00:34.111Z,43.50
2023-03-18T21:04:01.549Z,43.60
2023-03-18T21:07:26.077Z,43.60
2023-03-18T21:10:51.393Z,43.70
2023-03-18T21:14:16.240Z,43.90
2023-03-18T21:17:40.122Z,43.90
2023-03-18T21:21:03.722Z,43.90
2023-03-18T21:24:29.340Z,44.00
2023-03-18T21:27:54.947Z,44.20
2023-03-18T21:31:28.724Z,44.00
2023-03-18T21:34:53.199Z,44.30
2023-03-18T21:41:40.794Z,43.60
2023-03-18T21:45:13.289Z,44.10
2023-03-18T21:48:37.035Z,44.30
2023-03-18T21:52:00.548Z,44.00
2023-03-18T21:55:24.135Z,44.10
2023-03-18T21:58:47.841Z,44.20
2023-03-18T22:02:30.258Z,44.40
2023-03-18T22:05:54.539Z,44.80
2023-03-18T22:09:18.027Z,44.30
2023-03-18T22:12:41.479Z,44.40
2023-03-18T22:16:05.142Z,44.50
2023-03-18T22:19:30.188Z,44.40
2023-03-18T22:22:54.037Z,45.10
2023-03-18T22:26:19.500Z,44.50
2023-03-18T22:33:07.505Z,44.00
2023-03-18T22:36:32.311Z,44.60
2023-03-18T22:39:55.824Z,44.60
2023-03-18T22:43:33.646Z,44.70
2023-03-18T22:46:57.206Z,45.00
2023-03-18T22:50:22.186Z,44.90
2023-03-18T22:53:52.444Z,45.00
2023-03-18T22:57:21.230Z,45.30
2023-03-18T23:00:46.201Z,45.30
2023-03-18T23:04:12.189Z,45.20
2023-03-18T23:07:35.635Z,45.30
2023-03-18T23:11:02.451Z,45.30
2023-03-18T23:14:25.912Z,45.00
2023-03-18T23:17:50.696Z,45.50
2023-03-18T23:21:18.713Z,45.70
2023-03-18T23:24:42.478Z,45.80
2023-03-18T23:28:07.569Z,45.80
2023-03-18T23:31:31.001Z,45.90
2023-03-18T23:34:54.509Z,46.00
2023-03-18T23:38:17.906Z,46.00
2023-03-18T23:41:41.433Z,46.10
2023-03-18T23:45:08.583Z,46.10
2023-03-18T23:48:32.479Z,46.30
2023-03-18T23:51:55.850Z,46.20
2023-03-18T23:55:33.455Z,46.30
2023-03-18T23:58:58.018Z,46.40
